Impacts METAR Board
IDs:

KDEN - Denver Intl, CO, US

Updated at: 0600 UTC 07 Dec 2022
Potential Impact None Slight Moderate High
Time 06/18Z 06/19Z 06/20Z 06/21Z 06/22Z 06/23Z 07/00Z 07/01Z 07/02Z 07/03Z 07/04Z 07/05Z 07/06Z
Temp48 50 53 54 53 50 45 42 32 31 31 30 26
Dewpt19 17 14 12 10 10 11 12 11 12 12 13 12
Altim29.88 29.86 29.85 29.86 29.87 29.90 29.92 29.95 29.97 29.99 30.00 30.01 30.02
VIS10 10 10 10 10 10 10 10 10 10 10 10 10
CIG-- -- -- -- -- -- -- -- -- -- -- -- --
CoverFEWSCTSCTSCTSCTSCTSCTFEWFEWFEWFEWFEWFEW
FltCatVFRVFRVFRVFRVFRVFRVFRVFRVFRVFRVFRVFRVFR
WX--------------------------
WDir270280270290310320300300150160160170150
WSpd12 11 13 11 16 12 9 7 10 9 9 7 10
WGst-- -- -- -- 25 -- -- -- -- -- -- -- --
Raw hourly METARs
KDEN 061753Z 27012KT 10SM FEW090 FEW120 FEW200 09/M07 A2988 RMK AO2 SLP111 T00891072 10089 21033 50002
KDEN 061853Z 28011KT 10SM FEW090 FEW120 SCT220 10/M08 A2986 RMK AO2 SLP103 T01001083
KDEN 061953Z 27013KT 10SM FEW090 FEW120 SCT220 12/M10 A2985 RMK AO2 SLP099 T01171100
KDEN 062053Z 29011KT 10SM FEW090 FEW120 SCT220 12/M11 A2986 RMK AO2 SLP099 T01221111 55006
KDEN 062153Z 31016G25KT 10SM FEW090 FEW120 SCT220 12/M12 A2987 RMK AO2 PK WND 31026/2105 SLP100 T01171122
KDEN 062253Z 32012KT 10SM FEW120 SCT220 10/M12 A2990 RMK AO2 SLP114 T01001122
KDEN 062353Z 30009KT 10SM FEW090 FEW120 SCT220 07/M12 A2992 RMK AO2 SLP131 T00721117 10122 20072 53018
KDEN 070053Z 30007KT 10SM FEW090 FEW120 FEW220 06/M11 A2995 RMK AO2 SLP142 T00561111
KDEN 070153Z 15010KT 10SM FEW130 00/M12 A2997 RMK AO2 SLP164 T00001117
KDEN 070253Z 16009KT 10SM FEW130 M01/M11 A2999 RMK AO2 SLP169 T10061111 51018
KDEN 070353Z 16009KT 10SM FEW130 M01/M11 A3000 RMK AO2 SLP163 T10061111
KDEN 070453Z 17007KT 10SM FEW160 M01/M11 A3001 RMK AO2 SLP159 T10111106
KDEN 070553Z 15010KT 10SM FEW160 M03/M11 A3002 RMK AO2 SLP163 T10331111 10072 21056 51010



Page loaded:  06:53 UTC  |   10:53 PM Pacific  |   11:53 PM Mountain  |   12:53 AM Central  |   01:53 AM Eastern

 

ADVISORIES

FORECASTS

FORECASTS

OBSERVATIONS

USER TOOLS

ABOUT US